Time;durP1;ratioP1;P1;durP2;ratioP2;P2;SDS_P1;SDS_P2;PMS_P1;PMS_P2;Temp;Humidity;BMP_temperature;BMP_pressure;BME280_temperature;BME280_humidity;BME280_pressure;Samples;Min_cycle;Max_cycle;Signal;HPM_P1;HPM_P2
2023/03/11 00:01:44;;;;;;;;;;;;;;;2.30;86.31;97150.47;5045201;28;19931;-81
2023/03/11 00:04:10;;;;;;;;;;;;;;;2.17;85.69;97140.25;5066097;28;19935;-82
2023/03/11 00:06:36;;;;;;;;;;;;;;;2.25;85.87;97169.59;5064248;28;19928;-82
2023/03/11 00:09:02;;;;;;;;;;;;;;;1.98;85.58;97160.72;5069405;28;20301;-81
2023/03/11 00:11:27;;;;;;;;;;;;;;;1.75;84.88;97175.78;5061902;28;19947;-81
2023/03/11 00:13:53;;;;;;;;;;;;;;;2.16;85.43;97181.56;5066140;28;19970;-82
2023/03/11 00:16:18;;;;;;;;;;;;;;;1.84;85.50;97198.03;5060951;28;19921;-82
2023/03/11 00:18:43;;;;;;;;;;;;;;;2.00;86.16;97192.84;5063337;28;19925;-81
2023/03/11 00:21:15;;;;;;;;;;;;;;;2.15;85.82;97206.28;5066703;28;19924;-80
2023/03/11 00:23:41;;;;;;;;;;;;;;;2.01;85.47;97212.06;5068630;28;19924;-83
2023/03/11 00:26:06;;;;;;;;;;;;;;;2.15;85.27;97223.91;5071961;28;19923;-82
2023/03/11 00:28:31;;;;;;;;;;;;;;;1.95;84.81;97228.75;5069128;28;19925;-83
2023/03/11 00:30:57;;;;;;;;;;;;;;;2.02;85.83;97230.25;5051792;28;19933;-82
2023/03/11 00:33:22;;;;;;;;;;;;;;;1.85;85.20;97226.75;5070097;28;19925;-81
2023/03/11 00:35:48;;;;;;;;;;;;;;;1.66;86.24;97242.91;5070586;28;20307;-81
2023/03/11 00:38:15;;;;;;;;;;;;;;;2.19;85.22;97236.34;5072298;28;19931;-82
2023/03/11 00:40:40;;;;;;;;;;;;;;;2.09;85.12;97243.25;5069127;28;20308;-82
2023/03/11 00:43:05;;;;;;;;;;;;;;;2.11;85.46;97249.09;5072640;28;19916;-83
2023/03/11 00:45:31;;;;;;;;;;;;;;;1.98;84.63;97246.72;5070744;28;19920;-83
2023/03/11 00:47:56;;;;;;;;;;;;;;;2.07;85.19;97266.38;5073876;28;20338;-83
2023/03/11 00:50:24;;;;;;;;;;;;;;;1.83;85.18;97275.34;5050257;28;20415;-83
2023/03/11 00:52:49;;;;;;;;;;;;;;;1.66;85.72;97256.84;5068695;28;19966;-82
2023/03/11 00:55:16;;;;;;;;;;;;;;;1.91;85.60;97267.91;5069306;28;20347;-82
2023/03/11 00:57:42;;;;;;;;;;;;;;;1.31;84.28;97298.91;5071304;28;19920;-82
2023/03/11 01:00:11;;;;;;;;;;;;;;;1.93;85.81;97292.13;5070050;28;19924;-83
2023/03/11 01:02:37;;;;;;;;;;;;;;;1.82;85.01;97287.69;5059024;28;19916;-82
2023/03/11 01:05:04;;;;;;;;;;;;;;;1.79;85.36;97285.50;5065382;28;20330;-84
2023/03/11 01:07:29;;;;;;;;;;;;;;;2.10;85.13;97298.28;5064988;28;19935;-83
2023/03/11 01:09:54;;;;;;;;;;;;;;;1.93;84.30;97291.34;5068089;28;19921;-83
2023/03/11 01:12:20;;;;;;;;;;;;;;;1.89;84.86;97308.63;5060718;28;20023;-83
2023/03/11 01:14:45;;;;;;;;;;;;;;;1.93;84.20;97315.81;5049215;28;19934;-83
2023/03/11 01:17:10;;;;;;;;;;;;;;;1.94;84.48;97316.63;5064207;28;19927;-82
2023/03/11 01:19:35;;;;;;;;;;;;;;;1.59;85.51;97310.59;5065712;28;19921;-82
2023/03/11 01:22:01;;;;;;;;;;;;;;;2.03;85.34;97325.75;5052212;28;19927;-81
2023/03/11 01:24:26;;;;;;;;;;;;;;;1.93;84.68;97322.91;5066446;28;19938;-82
2023/03/11 01:26:51;;;;;;;;;;;;;;;1.82;85.42;97344.75;5069271;28;20430;-82
2023/03/11 01:29:16;;;;;;;;;;;;;;;1.89;84.82;97337.56;5047797;28;20308;-82
2023/03/11 01:31:42;;;;;;;;;;;;;;;1.42;84.35;97344.66;5051136;28;20303;-82
2023/03/11 01:34:07;;;;;;;;;;;;;;;1.78;84.76;97340.97;5053395;28;19928;-82
2023/03/11 01:36:32;;;;;;;;;;;;;;;1.70;84.76;97365.00;5068402;28;19924;-82
2023/03/11 01:38:57;;;;;;;;;;;;;;;1.86;84.02;97365.09;5050994;28;19921;-83
2023/03/11 01:41:22;;;;;;;;;;;;;;;1.78;83.78;97373.34;5069652;28;19951;-84
2023/03/11 01:43:50;;;;;;;;;;;;;;;1.43;82.92;97373.31;5067606;28;19925;-83
2023/03/11 01:46:18;;;;;;;;;;;;;;;1.47;83.42;97377.09;5070468;28;20019;-82
2023/03/11 01:48:47;;;;;;;;;;;;;;;1.57;83.81;97386.25;5064240;28;20336;-82
2023/03/11 01:51:13;;;;;;;;;;;;;;;1.52;84.23;97403.53;5071131;28;19948;-83
2023/03/11 01:53:38;;;;;;;;;;;;;;;1.36;83.44;97422.56;5070539;28;20003;-83
2023/03/11 01:56:04;;;;;;;;;;;;;;;1.55;83.38;97417.22;5072456;28;20373;-82
2023/03/11 01:58:32;;;;;;;;;;;;;;;1.44;83.44;97424.84;5072031;28;19920;-82
2023/03/11 02:00:58;;;;;;;;;;;;;;;1.69;83.34;97422.06;5068006;28;19924;-82
2023/03/11 02:03:31;;;;;;;;;;;;;;;1.56;82.56;97424.09;5071775;28;19931;-81
2023/03/11 02:05:58;;;;;;;;;;;;;;;1.72;83.60;97437.38;5072197;28;19942;-82
2023/03/11 02:08:24;;;;;;;;;;;;;;;1.66;83.19;97432.22;5070858;28;19916;-82
2023/03/11 02:10:51;;;;;;;;;;;;;;;1.34;83.38;97436.94;5070479;28;20380;-82
2023/03/11 02:13:17;;;;;;;;;;;;;;;1.70;83.80;97442.06;5064401;28;19924;-83
2023/03/11 02:15:43;;;;;;;;;;;;;;;1.77;83.27;97439.34;5064977;28;20515;-83
2023/03/11 02:18:10;;;;;;;;;;;;;;;1.80;82.72;97447.56;5068479;28;20368;-82
2023/03/11 02:20:54;;;;;;;;;;;;;;;1.79;82.40;97445.94;5067489;28;19931;-82
2023/03/11 02:23:23;;;;;;;;;;;;;;;1.53;83.06;97449.78;5069420;28;19917;-82
2023/03/11 02:25:59;;;;;;;;;;;;;;;1.77;83.32;97450.63;5070048;28;19921;-82
2023/03/11 02:28:26;;;;;;;;;;;;;;;1.91;83.13;97464.38;5068194;28;20288;-82
2023/03/11 02:30:52;;;;;;;;;;;;;;;1.61;83.31;97459.19;5070091;28;19925;-82
2023/03/11 02:33:17;;;;;;;;;;;;;;;1.57;82.54;97458.06;5071902;28;19916;-82
2023/03/11 02:35:42;;;;;;;;;;;;;;;1.30;83.01;97462.88;5066817;28;19963;-82
2023/03/11 02:38:08;;;;;;;;;;;;;;;1.21;82.24;97466.03;5072671;28;19924;-82
2023/03/11 02:40:56;;;;;;;;;;;;;;;1.34;83.76;97466.66;5070446;28;19931;-82
2023/03/11 02:43:23;;;;;;;;;;;;;;;1.50;82.74;97475.75;5066885;28;19924;-81
2023/03/11 02:45:49;;;;;;;;;;;;;;;1.73;82.98;97477.63;5071928;28;19962;-82
2023/03/11 02:48:15;;;;;;;;;;;;;;;1.46;82.20;97482.47;5051022;28;20300;-81
2023/03/11 02:50:41;;;;;;;;;;;;;;;1.55;82.17;97488.22;5068566;28;20368;-81
2023/03/11 02:53:06;;;;;;;;;;;;;;;1.51;82.85;97488.66;5066506;28;19938;-81
2023/03/11 02:55:32;;;;;;;;;;;;;;;1.73;82.61;97494.19;5069025;28;20284;-82
2023/03/11 02:57:57;;;;;;;;;;;;;;;1.77;82.29;97497.19;5066315;28;19923;-82
2023/03/11 03:00:23;;;;;;;;;;;;;;;1.73;82.25;97493.41;5050829;28;20271;-81
2023/03/11 03:02:52;;;;;;;;;;;;;;;1.44;81.77;97492.41;5070399;28;20395;-80
2023/03/11 03:05:21;;;;;;;;;;;;;;;1.56;82.57;97497.69;5071164;28;19939;-80
2023/03/11 03:07:47;;;;;;;;;;;;;;;1.68;82.59;97499.34;5064588;28;19921;-81
2023/03/11 03:10:13;;;;;;;;;;;;;;;1.30;82.32;97489.16;5052098;28;19940;-80
2023/03/11 03:12:38;;;;;;;;;;;;;;;1.19;82.27;97494.38;5066962;28;19944;-80
2023/03/11 03:15:04;;;;;;;;;;;;;;;1.20;82.25;97499.38;5069097;28;19924;-81
2023/03/11 03:17:29;;;;;;;;;;;;;;;1.38;83.04;97493.28;5071043;28;19921;-82
2023/03/11 03:19:54;;;;;;;;;;;;;;;1.45;82.53;97500.06;5070308;28;19924;-82
2023/03/11 03:22:20;;;;;;;;;;;;;;;1.61;81.59;97509.16;5067774;28;19974;-81
2023/03/11 03:24:45;;;;;;;;;;;;;;;1.58;81.19;97516.69;5068373;28;19925;-82
2023/03/11 03:27:10;;;;;;;;;;;;;;;1.24;82.58;97518.97;5067007;28;20407;-81
2023/03/11 03:29:35;;;;;;;;;;;;;;;1.51;82.29;97516.78;5063800;28;20011;-80
2023/03/11 03:32:01;;;;;;;;;;;;;;;1.50;82.26;97528.31;5065234;28;19970;-81
2023/03/11 03:34:26;;;;;;;;;;;;;;;1.19;82.37;97529.34;5069002;28;19929;-80
2023/03/11 03:36:51;;;;;;;;;;;;;;;1.42;82.11;97524.16;5062775;28;19921;-79
2023/03/11 03:39:18;;;;;;;;;;;;;;;1.33;82.88;97538.63;5062274;28;19921;-81
2023/03/11 03:41:43;;;;;;;;;;;;;;;1.21;81.95;97542.25;5065163;28;20660;-80
2023/03/11 03:44:09;;;;;;;;;;;;;;;1.43;81.88;97546.00;5069637;28;19920;-79
2023/03/11 03:46:34;;;;;;;;;;;;;;;1.20;82.19;97564.31;5072405;28;19928;-79
2023/03/11 03:48:59;;;;;;;;;;;;;;;1.18;83.35;97561.09;5073225;28;20023;-79
2023/03/11 03:51:24;;;;;;;;;;;;;;;1.22;83.32;97578.03;5068197;28;20007;-79
2023/03/11 03:53:50;;;;;;;;;;;;;;;1.16;82.16;97584.13;5078582;28;19970;-80
2023/03/11 03:56:16;;;;;;;;;;;;;;;1.38;82.95;97578.22;5072817;28;19959;-81
2023/03/11 03:58:41;;;;;;;;;;;;;;;1.67;82.35;97597.66;5074289;28;19916;-80
2023/03/11 04:01:07;;;;;;;;;;;;;;;1.49;82.79;97595.88;5071877;28;20010;-79
2023/03/11 04:03:34;;;;;;;;;;;;;;;1.46;82.62;97598.94;5067838;28;20384;-80
2023/03/11 04:06:10;;;;;;;;;;;;;;;1.64;82.49;97607.84;5072493;28;19962;-79
2023/03/11 04:08:35;;;;;;;;;;;;;;;1.63;81.95;97604.41;5073600;28;19916;-81
2023/03/11 04:11:00;;;;;;;;;;;;;;;1.79;82.14;97614.28;5070065;28;19935;-81
2023/03/11 04:13:26;;;;;;;;;;;;;;;1.44;83.18;97619.38;5071875;28;19931;-79
2023/03/11 04:15:51;;;;;;;;;;;;;;;1.75;82.33;97623.66;5064250;28;19916;-79
2023/03/11 04:18:16;;;;;;;;;;;;;;;1.72;82.08;97631.19;5050455;28;19925;-77
2023/03/11 04:20:41;;;;;;;;;;;;;;;1.49;80.84;97626.59;5068956;28;19929;-79
2023/03/11 04:23:06;;;;;;;;;;;;;;;1.53;82.71;97628.56;5051482;28;19995;-80
2023/03/11 04:25:33;;;;;;;;;;;;;;;1.44;82.69;97632.53;5069288;28;19932;-81
2023/03/11 04:27:58;;;;;;;;;;;;;;;1.64;82.68;97628.88;5063698;28;19980;-80
2023/03/11 04:30:23;;;;;;;;;;;;;;;1.50;82.76;97636.91;5067731;28;20043;-81
2023/03/11 04:32:48;;;;;;;;;;;;;;;1.59;82.64;97633.97;5071575;28;20307;-81
2023/03/11 04:35:14;;;;;;;;;;;;;;;1.64;82.21;97634.91;5071171;28;20537;-80
2023/03/11 04:37:39;;;;;;;;;;;;;;;1.61;82.23;97639.81;5051757;28;19994;-79
2023/03/11 04:40:05;;;;;;;;;;;;;;;1.65;82.21;97647.06;5067032;28;19935;-81
2023/03/11 04:42:31;;;;;;;;;;;;;;;1.65;82.00;97640.97;5070631;28;19927;-80
2023/03/11 04:44:56;;;;;;;;;;;;;;;1.62;81.75;97644.06;5071089;28;20307;-81
2023/03/11 04:47:21;;;;;;;;;;;;;;;1.65;81.78;97647.06;5072791;28;19928;-80
2023/03/11 04:49:46;;;;;;;;;;;;;;;1.39;81.19;97655.25;5071531;28;20046;-78
2023/03/11 04:52:12;;;;;;;;;;;;;;;1.51;82.66;97658.72;5072810;28;19935;-79
2023/03/11 04:54:37;;;;;;;;;;;;;;;1.50;82.17;97668.47;5069170;28;20426;-80
2023/03/11 04:57:02;;;;;;;;;;;;;;;1.77;82.28;97674.19;5048229;28;19963;-80
2023/03/11 04:59:28;;;;;;;;;;;;;;;1.43;82.33;97674.81;5073728;28;19920;-80
2023/03/11 05:01:53;;;;;;;;;;;;;;;1.23;81.96;97672.41;5070025;28;19940;-79
2023/03/11 05:04:18;;;;;;;;;;;;;;;1.33;82.53;97680.56;5071019;28;19920;-81
2023/03/11 05:06:44;;;;;;;;;;;;;;;1.49;83.63;97681.81;5066091;28;19924;-78
2023/03/11 05:09:09;;;;;;;;;;;;;;;1.37;82.84;97683.56;5051396;28;20356;-80
2023/03/11 05:11:34;;;;;;;;;;;;;;;1.60;83.03;97685.53;5065176;28;20019;-78
2023/03/11 05:13:59;;;;;;;;;;;;;;;1.32;82.22;97686.03;5069941;28;20385;-78
2023/03/11 05:16:25;;;;;;;;;;;;;;;1.66;82.89;97690.72;5071830;28;19966;-79
2023/03/11 05:18:50;;;;;;;;;;;;;;;1.53;82.29;97696.94;5054949;28;19927;-78
2023/03/11 05:21:15;;;;;;;;;;;;;;;1.64;82.52;97694.63;5070218;28;19924;-79
2023/03/11 05:23:41;;;;;;;;;;;;;;;1.22;82.91;97704.16;5071683;28;19921;-79
2023/03/11 05:26:06;;;;;;;;;;;;;;;1.56;82.88;97703.59;5073117;28;19916;-80
2023/03/11 05:28:31;;;;;;;;;;;;;;;1.43;83.13;97706.34;5069918;28;19952;-81
2023/03/11 05:30:57;;;;;;;;;;;;;;;1.40;83.31;97710.22;5052537;28;19920;-80
2023/03/11 05:33:22;;;;;;;;;;;;;;;1.58;82.89;97713.88;5069871;28;19920;-81
2023/03/11 05:35:47;;;;;;;;;;;;;;;1.49;82.31;97718.63;5070751;28;19970;-80
2023/03/11 05:38:13;;;;;;;;;;;;;;;1.53;82.49;97722.41;5070829;28;20423;-80
2023/03/11 05:40:38;;;;;;;;;;;;;;;1.30;82.05;97725.69;5070613;28;19917;-80
2023/03/11 05:43:03;;;;;;;;;;;;;;;1.43;83.14;97730.81;5068022;28;19924;-81
2023/03/11 05:45:29;;;;;;;;;;;;;;;1.29;82.56;97737.22;5067997;28;20019;-80
2023/03/11 05:47:54;;;;;;;;;;;;;;;1.47;82.49;97734.63;5069414;28;19924;-79
2023/03/11 05:50:19;;;;;;;;;;;;;;;1.43;82.72;97738.72;5051325;28;19920;-80
2023/03/11 05:52:44;;;;;;;;;;;;;;;1.23;82.14;97748.59;5065616;28;19928;-79
2023/03/11 05:55:11;;;;;;;;;;;;;;;1.49;83.03;97748.34;5063668;28;19916;-81
2023/03/11 05:57:36;;;;;;;;;;;;;;;1.53;82.59;97756.59;5069830;28;20328;-81
2023/03/11 06:00:04;;;;;;;;;;;;;;;1.58;82.16;97755.94;5053601;28;19935;-79
2023/03/11 06:02:29;;;;;;;;;;;;;;;1.59;82.00;97758.38;5070273;28;19920;-81
2023/03/11 06:04:55;;;;;;;;;;;;;;;1.56;82.35;97758.81;5066476;28;19920;-81
2023/03/11 06:07:20;;;;;;;;;;;;;;;1.40;82.36;97760.16;5070350;28;19920;-80
2023/03/11 06:09:45;;;;;;;;;;;;;;;1.37;81.67;97760.63;5068293;28;19954;-80
2023/03/11 06:12:10;;;;;;;;;;;;;;;1.45;82.05;97762.97;5070414;28;19925;-80
2023/03/11 06:14:37;;;;;;;;;;;;;;;1.32;81.87;97765.72;5065529;28;19938;-81
2023/03/11 06:17:03;;;;;;;;;;;;;;;1.35;81.34;97767.91;5053626;28;20383;-79
2023/03/11 06:19:28;;;;;;;;;;;;;;;1.32;82.33;97772.78;5068394;28;19959;-81
2023/03/11 06:21:53;;;;;;;;;;;;;;;1.50;82.27;97784.16;5046881;28;19928;-80
2023/03/11 06:24:18;;;;;;;;;;;;;;;1.51;82.00;97787.56;5046963;28;20023;-81
2023/03/11 06:26:44;;;;;;;;;;;;;;;1.18;81.14;97794.94;5062154;28;19928;-81
2023/03/11 06:29:13;;;;;;;;;;;;;;;1.20;81.84;97795.53;5069652;28;19935;-81
2023/03/11 06:31:38;;;;;;;;;;;;;;;1.48;82.13;97806.41;5060126;28;20431;-80
2023/03/11 06:34:05;;;;;;;;;;;;;;;1.19;83.07;97799.97;5060998;28;19920;-81
2023/03/11 06:36:30;;;;;;;;;;;;;;;1.41;82.44;97793.31;5063353;28;19922;-79
2023/03/11 06:38:55;;;;;;;;;;;;;;;1.33;82.40;97792.81;5065619;28;19928;-79
2023/03/11 06:41:21;;;;;;;;;;;;;;;1.48;82.23;97788.81;5064292;28;19962;-79
2023/03/11 06:43:46;;;;;;;;;;;;;;;1.41;82.07;97798.59;5064908;28;19920;-80
2023/03/11 06:46:15;;;;;;;;;;;;;;;1.03;80.54;97808.38;5064702;28;19928;-79
2023/03/11 06:48:41;;;;;;;;;;;;;;;1.34;81.47;97800.47;5070380;28;20006;-78
2023/03/11 06:51:06;;;;;;;;;;;;;;;1.23;81.25;97810.84;5065132;28;20027;-78
2023/03/11 06:53:32;;;;;;;;;;;;;;;1.36;81.96;97814.19;5068980;28;19960;-79
2023/03/11 06:56:04;;;;;;;;;;;;;;;1.26;81.27;97811.25;5066354;28;20206;-78
2023/03/11 06:58:30;;;;;;;;;;;;;;;1.41;81.98;97818.81;5067194;28;19966;-79
2023/03/11 07:01:02;;;;;;;;;;;;;;;1.31;80.84;97821.91;5067642;28;19932;-80
2023/03/11 07:03:28;;;;;;;;;;;;;;;1.50;81.48;97818.31;5051396;28;19927;-79
2023/03/11 07:05:53;;;;;;;;;;;;;;;1.28;81.08;97830.25;5081796;28;19916;-78
2023/03/11 07:08:18;;;;;;;;;;;;;;;1.51;81.15;97838.31;5083294;28;19916;-79
2023/03/11 07:10:44;;;;;;;;;;;;;;;1.56;81.20;97850.00;5067769;28;19967;-79
2023/03/11 07:13:09;;;;;;;;;;;;;;;1.60;81.11;97849.38;5066712;28;20010;-80
2023/03/11 07:15:34;;;;;;;;;;;;;;;1.52;81.16;97852.28;5054107;28;20092;-80
2023/03/11 07:18:00;;;;;;;;;;;;;;;1.56;81.08;97852.66;5064773;28;19921;-78
2023/03/11 07:20:25;;;;;;;;;;;;;;;1.49;81.25;97850.88;5070385;28;19928;-78
2023/03/11 07:22:50;;;;;;;;;;;;;;;1.12;81.48;97856.22;5071742;28;19935;-78
2023/03/11 07:25:15;;;;;;;;;;;;;;;1.47;81.60;97865.25;5074142;28;19928;-79
2023/03/11 07:27:41;;;;;;;;;;;;;;;1.44;81.20;97871.75;5052383;28;19920;-80
2023/03/11 07:30:06;;;;;;;;;;;;;;;1.50;80.92;97870.09;5071209;28;20015;-79
2023/03/11 07:32:32;;;;;;;;;;;;;;;1.40;80.52;97881.09;5055289;28;19931;-80
2023/03/11 07:34:57;;;;;;;;;;;;;;;1.46;81.30;97874.97;5067600;28;19916;-79
2023/03/11 07:37:22;;;;;;;;;;;;;;;1.27;80.61;97875.09;5052351;28;20038;-80
2023/03/11 07:39:47;;;;;;;;;;;;;;;1.26;80.59;97876.97;5070474;28;19924;-80
2023/03/11 07:42:13;;;;;;;;;;;;;;;1.20;80.25;97874.38;5073495;28;19920;-80
2023/03/11 07:44:38;;;;;;;;;;;;;;;1.39;80.73;97876.06;5072353;28;19995;-80
2023/03/11 07:47:03;;;;;;;;;;;;;;;1.51;80.76;97884.84;5074114;28;19959;-79
2023/03/11 07:49:29;;;;;;;;;;;;;;;1.50;80.86;97889.31;5049428;28;19921;-80
2023/03/11 07:51:55;;;;;;;;;;;;;;;1.42;80.92;97894.03;5072292;28;20296;-81
2023/03/11 07:54:20;;;;;;;;;;;;;;;1.49;80.71;97900.03;5076553;28;19920;-80
2023/03/11 07:56:45;;;;;;;;;;;;;;;1.43;80.38;97904.31;5072304;28;19916;-80
2023/03/11 07:59:10;;;;;;;;;;;;;;;1.47;80.64;97913.41;5071128;28;20314;-79
2023/03/11 08:01:39;;;;;;;;;;;;;;;1.40;80.84;97911.81;5075713;28;20399;-78
2023/03/11 08:04:05;;;;;;;;;;;;;;;1.56;80.61;97907.88;5070403;28;19924;-79
2023/03/11 08:06:31;;;;;;;;;;;;;;;1.49;80.35;97911.34;5084752;28;19920;-80
2023/03/11 08:08:58;;;;;;;;;;;;;;;1.51;80.61;97922.47;5074142;28;20294;-81
2023/03/11 08:11:23;;;;;;;;;;;;;;;1.29;80.54;97931.72;5071773;28;19924;-80
2023/03/11 08:13:49;;;;;;;;;;;;;;;1.35;80.29;97922.19;5075668;28;20446;-81
2023/03/11 08:16:15;;;;;;;;;;;;;;;1.28;80.37;97931.94;5073449;28;19924;-81
2023/03/11 08:18:41;;;;;;;;;;;;;;;1.19;80.77;97954.22;5055539;28;19960;-81
2023/03/11 08:21:07;;;;;;;;;;;;;;;1.42;80.50;97952.66;5076899;28;19963;-81
2023/03/11 08:23:33;;;;;;;;;;;;;;;1.50;80.00;97956.88;5079274;28;19931;-81
2023/03/11 08:26:02;;;;;;;;;;;;;;;1.24;80.27;97975.41;5074145;28;20291;-81
2023/03/11 08:28:27;;;;;;;;;;;;;;;1.41;80.16;97981.78;5072121;28;20410;-81
2023/03/11 08:30:52;;;;;;;;;;;;;;;1.45;80.54;97986.41;5069456;28;20026;-81
2023/03/11 08:33:17;;;;;;;;;;;;;;;1.41;80.29;97993.13;5073405;28;19923;-80
2023/03/11 08:35:43;;;;;;;;;;;;;;;1.37;80.58;97991.94;5065405;28;20430;-81
2023/03/11 08:38:08;;;;;;;;;;;;;;;1.53;80.23;97995.84;5070310;28;20337;-81
2023/03/11 08:40:33;;;;;;;;;;;;;;;1.36;80.20;97995.56;5069645;28;19924;-79
2023/03/11 08:42:58;;;;;;;;;;;;;;;1.21;79.53;98000.28;5071002;28;19928;-79
2023/03/11 08:45:23;;;;;;;;;;;;;;;1.56;80.62;98005.16;5069964;28;19921;-80
2023/03/11 08:47:49;;;;;;;;;;;;;;;1.67;80.15;98015.81;5068100;28;19924;-81
2023/03/11 08:50:15;;;;;;;;;;;;;;;1.49;79.79;98006.00;5071855;28;19923;-81
2023/03/11 08:52:40;;;;;;;;;;;;;;;1.57;79.94;98020.75;5063627;28;19928;-81
2023/03/11 08:55:07;;;;;;;;;;;;;;;1.28;80.24;98022.09;5070520;28;20015;-82
2023/03/11 08:57:33;;;;;;;;;;;;;;;1.44;79.82;98024.22;5065140;28;19946;-82
2023/03/11 08:59:58;;;;;;;;;;;;;;;1.53;80.12;98030.03;5074439;28;19916;-80
2023/03/11 09:02:24;;;;;;;;;;;;;;;1.74;80.27;98036.81;5045118;28;20358;-82
2023/03/11 09:04:49;;;;;;;;;;;;;;;1.77;80.16;98034.56;5067874;28;20011;-82
2023/03/11 09:07:14;;;;;;;;;;;;;;;1.66;79.42;98032.59;5069443;28;20213;-81
2023/03/11 09:09:40;;;;;;;;;;;;;;;1.77;79.77;98033.75;5075708;28;19916;-80
2023/03/11 09:12:06;;;;;;;;;;;;;;;1.71;79.83;98040.66;5042069;28;19936;-80
2023/03/11 09:14:31;;;;;;;;;;;;;;;1.87;79.65;98032.28;5043348;28;19921;-80
2023/03/11 09:16:57;;;;;;;;;;;;;;;1.53;79.09;98045.81;5045462;28;19924;-81
2023/03/11 09:19:22;;;;;;;;;;;;;;;1.99;79.65;98042.91;5046805;28;19970;-80
2023/03/11 09:21:47;;;;;;;;;;;;;;;1.82;79.59;98041.81;5062801;28;20348;-83
2023/03/11 09:24:13;;;;;;;;;;;;;;;1.96;79.35;98040.72;5064797;28;19924;-81
2023/03/11 09:26:38;;;;;;;;;;;;;;;2.07;79.64;98058.44;5069070;28;19928;-82
2023/03/11 09:29:03;;;;;;;;;;;;;;;1.83;79.59;98044.25;5045100;28;20447;-81
2023/03/11 09:31:28;;;;;;;;;;;;;;;1.80;79.13;98060.44;5065617;28;19957;-81
2023/03/11 09:33:55;;;;;;;;;;;;;;;1.98;79.18;98051.81;5046697;28;20334;-80
2023/03/11 09:36:21;;;;;;;;;;;;;;;1.83;78.73;98067.09;5047370;28;19921;-80
2023/03/11 09:38:46;;;;;;;;;;;;;;;1.87;78.95;98076.19;5067267;28;19921;-82
2023/03/11 09:41:30;;;;;;;;;;;;;;;1.75;78.35;98078.66;5067376;28;19926;-79
2023/03/11 09:44:02;;;;;;;;;;;;;;;1.93;78.30;98091.94;5063928;28;19942;-79
2023/03/11 09:46:27;;;;;;;;;;;;;;;1.80;76.74;98091.19;5069261;28;19926;-81
2023/03/11 09:49:12;;;;;;;;;;;;;;;1.88;76.69;98089.13;5064165;28;20046;-79
2023/03/11 09:51:41;;;;;;;;;;;;;;;2.18;76.75;98105.13;5050449;28;20030;-83
2023/03/11 09:54:10;;;;;;;;;;;;;;;1.96;73.99;98093.34;5064293;28;20463;-81
2023/03/11 09:56:36;;;;;;;;;;;;;;;1.90;75.85;98109.97;5055592;28;19928;-82
2023/03/11 09:59:14;;;;;;;;;;;;;;;1.98;75.70;98112.34;5072919;28;20295;-82
2023/03/11 10:01:45;;;;;;;;;;;;;;;2.07;76.51;98106.63;5071076;28;19927;-81
2023/03/11 10:04:23;;;;;;;;;;;;;;;2.21;77.72;98107.31;5073053;28;19931;-81
2023/03/11 10:06:48;;;;;;;;;;;;;;;2.45;77.71;98103.91;5069394;28;19916;-81
2023/03/11 10:09:29;;;;;;;;;;;;;;;2.39;77.80;98110.03;5066519;28;19942;-82
2023/03/11 10:11:57;;;;;;;;;;;;;;;2.16;77.31;98107.19;5069557;28;19935;-81
2023/03/11 10:14:41;;;;;;;;;;;;;;;2.19;76.20;98106.72;5070414;28;20041;-82
2023/03/11 10:17:27;;;;;;;;;;;;;;;2.20;74.07;98105.72;5068799;28;19969;-79
2023/03/11 10:20:03;;;;;;;;;;;;;;;2.12;74.17;98106.78;5067307;28;19920;-81
2023/03/11 10:22:31;;;;;;;;;;;;;;;2.11;72.73;98113.06;5088983;28;19916;-80
2023/03/11 10:25:15;;;;;;;;;;;;;;;2.10;74.76;98113.28;5061714;28;20012;-81
2023/03/11 10:27:46;;;;;;;;;;;;;;;1.98;73.92;98114.97;5066381;28;19917;-81
2023/03/11 10:30:32;;;;;;;;;;;;;;;2.04;73.00;98116.75;5062901;28;19924;-81
2023/03/11 10:33:24;;;;;;;;;;;;;;;2.10;73.78;98116.72;5057197;28;19928;-80
2023/03/11 10:35:53;;;;;;;;;;;;;;;2.21;73.81;98105.50;5040561;28;19920;-80
2023/03/11 10:38:21;;;;;;;;;;;;;;;2.43;73.93;98105.94;5064415;28;19916;-81
2023/03/11 10:40:49;;;;;;;;;;;;;;;2.58;74.02;98103.78;5047866;28;19979;-81
2023/03/11 10:43:27;;;;;;;;;;;;;;;2.65;74.57;98103.75;5066638;28;19927;-79
2023/03/11 10:45:53;;;;;;;;;;;;;;;2.71;74.06;98114.22;5067836;28;19943;-81
2023/03/11 10:48:19;;;;;;;;;;;;;;;2.36;74.52;98120.97;5069671;28;19916;-80
2023/03/11 10:50:53;;;;;;;;;;;;;;;2.67;75.00;98110.41;5068057;28;19960;-79
2023/03/11 10:53:19;;;;;;;;;;;;;;;2.67;74.92;98123.56;5068007;28;20039;-80
2023/03/11 10:55:55;;;;;;;;;;;;;;;2.05;73.48;98131.53;5069538;28;19924;-80
2023/03/11 10:58:22;;;;;;;;;;;;;;;2.45;75.99;98122.34;5074675;28;19920;-80
2023/03/11 11:01:03;;;;;;;;;;;;;;;2.84;75.51;98123.84;5053535;28;19970;-81
2023/03/11 11:03:28;;;;;;;;;;;;;;;2.78;75.98;98124.69;5062276;28;20821;-79
2023/03/11 11:06:05;;;;;;;;;;;;;;;2.54;76.03;98130.78;5046246;28;19956;-79
2023/03/11 11:08:30;;;;;;;;;;;;;;;2.51;74.21;98139.13;5066481;28;19959;-80
2023/03/11 11:10:57;;;;;;;;;;;;;;;2.76;75.90;98135.47;5067509;28;20026;-79
2023/03/11 11:13:24;;;;;;;;;;;;;;;2.72;75.06;98129.03;5065917;28;19923;-80
2023/03/11 11:15:51;;;;;;;;;;;;;;;2.73;75.45;98132.47;5069728;28;19990;-79
2023/03/11 11:18:41;;;;;;;;;;;;;;;2.95;74.29;98128.38;5069334;28;20357;-79
2023/03/11 11:21:07;;;;;;;;;;;;;;;3.09;74.49;98132.53;5084800;28;19954;-79
2023/03/11 11:23:36;;;;;;;;;;;;;;;3.33;73.94;98131.66;5065904;28;21445;-80
2023/03/11 11:26:03;;;;;;;;;;;;;;;3.20;73.80;98128.34;5072253;28;19916;-80
2023/03/11 11:28:29;;;;;;;;;;;;;;;2.80;73.60;98131.38;5066664;28;19920;-80
2023/03/11 11:31:03;;;;;;;;;;;;;;;3.11;74.81;98138.38;5065835;28;20346;-79
2023/03/11 11:33:30;;;;;;;;;;;;;;;2.89;72.01;98134.53;5068859;28;19989;-79
2023/03/11 11:35:57;;;;;;;;;;;;;;;3.12;74.37;98150.56;5088182;28;19925;-80
2023/03/11 11:38:24;;;;;;;;;;;;;;;3.29;74.23;98142.88;5070959;28;20244;-80
2023/03/11 11:40:50;;;;;;;;;;;;;;;3.31;74.20;98144.25;5069907;28;19916;-80
2023/03/11 11:43:16;;;;;;;;;;;;;;;3.12;74.07;98142.63;5071303;28;20020;-78
2023/03/11 11:45:44;;;;;;;;;;;;;;;3.28;74.08;98131.50;5068535;28;19939;-80
2023/03/11 11:48:21;;;;;;;;;;;;;;;3.09;74.01;98131.72;5070891;28;20399;-79
2023/03/11 11:50:59;;;;;;;;;;;;;;;3.23;71.36;98138.47;5072497;28;19920;-79
2023/03/11 11:53:48;;;;;;;;;;;;;;;3.18;72.05;98133.84;5072245;28;19924;-79
2023/03/11 11:56:14;;;;;;;;;;;;;;;3.34;71.29;98135.88;5064481;28;19924;-80
2023/03/11 11:58:42;;;;;;;;;;;;;;;3.57;72.62;98132.59;5074869;28;19912;-81
2023/03/11 12:01:13;;;;;;;;;;;;;;;3.56;72.40;98138.91;5075155;28;20291;-80
2023/03/11 12:04:00;;;;;;;;;;;;;;;3.61;72.83;98141.69;5071809;28;20295;-81
2023/03/11 12:06:26;;;;;;;;;;;;;;;3.40;73.90;98140.31;5078543;28;20398;-79
2023/03/11 12:09:22;;;;;;;;;;;;;;;3.54;73.21;98135.66;5076895;28;19955;-80
2023/03/11 12:11:58;;;;;;;;;;;;;;;3.63;71.07;98135.16;5064525;28;19931;-80
2023/03/11 12:14:23;;;;;;;;;;;;;;;3.65;71.82;98137.56;5076490;28;19912;-79
2023/03/11 12:16:56;;;;;;;;;;;;;;;3.94;70.19;98142.06;5074073;28;19995;-79
2023/03/11 12:19:29;;;;;;;;;;;;;;;4.01;69.83;98123.50;5075353;28;19916;-79
2023/03/11 12:22:03;;;;;;;;;;;;;;;3.77;68.86;98118.16;5071271;28;19987;-80
2023/03/11 12:24:28;;;;;;;;;;;;;;;4.05;69.67;98136.03;5071732;28;19917;-79
2023/03/11 12:26:57;;;;;;;;;;;;;;;3.86;69.52;98136.31;5069666;28;19916;-80
2023/03/11 12:29:32;;;;;;;;;;;;;;;3.88;70.42;98139.53;5071421;28;19984;-80
2023/03/11 12:31:59;;;;;;;;;;;;;;;4.17;70.10;98128.94;5082171;28;20194;-80
2023/03/11 12:34:24;;;;;;;;;;;;;;;3.81;70.56;98123.78;5070600;28;19928;-80
2023/03/11 12:36:50;;;;;;;;;;;;;;;3.82;70.80;98120.13;5074410;28;20277;-79
2023/03/11 12:39:19;;;;;;;;;;;;;;;4.09;69.39;98124.00;5073039;28;19945;-80
2023/03/11 12:41:44;;;;;;;;;;;;;;;4.12;69.91;98134.13;5064591;28;20339;-79
2023/03/11 12:44:27;;;;;;;;;;;;;;;4.47;69.20;98135.03;5051739;28;19928;-78
2023/03/11 12:46:52;;;;;;;;;;;;;;;4.31;68.49;98135.66;5065723;28;20027;-80
2023/03/11 12:49:21;;;;;;;;;;;;;;;4.48;69.04;98135.81;5069887;28;20007;-80
2023/03/11 12:51:59;;;;;;;;;;;;;;;3.95;66.16;98141.06;5075028;28;19924;-80
2023/03/11 12:54:29;;;;;;;;;;;;;;;3.78;64.10;98137.41;5070782;28;19916;-80
2023/03/11 12:57:18;;;;;;;;;;;;;;;3.55;63.57;98142.56;5069446;28;20364;-80
2023/03/11 12:59:46;;;;;;;;;;;;;;;3.86;65.49;98147.69;5068143;28;20281;-80